Time;durP1;ratioP1;P1;durP2;ratioP2;P2;SDS_P1;SDS_P2;PMS_P1;PMS_P2;Temp;Humidity;BMP_temperature;BMP_pressure;BME280_temperature;BME280_humidity;BME280_pressure;Samples;Min_cycle;Max_cycle;Signal;HPM_P1;HPM_P2
2022/04/13 00:00:30;;;;;;;23.70;11.35;;;13.00;76.60;;;;;;4959289;28;20065;-79
2022/04/13 00:02:58;;;;;;;18.42;10.75;;;13.00;76.30;;;;;;4959026;28;20034;-78
2022/04/13 00:05:26;;;;;;;20.83;11.98;;;13.10;75.60;;;;;;4939390;29;20055;-80
2022/04/13 00:07:55;;;;;;;25.17;11.23;;;13.00;77.30;;;;;;4956536;29;20570;-79
2022/04/13 00:10:22;;;;;;;21.23;12.95;;;12.80;78.00;;;;;;4955592;29;20494;-79
2022/04/13 00:12:49;;;;;;;25.55;14.43;;;12.60;80.70;;;;;;4956236;29;20514;-79
2022/04/13 00:15:17;;;;;;;25.20;13.90;;;12.60;82.50;;;;;;4956482;29;20094;-79
2022/04/13 00:17:44;;;;;;;23.95;15.55;;;12.80;82.50;;;;;;4955251;29;20360;-79
2022/04/13 00:20:11;;;;;;;30.00;15.60;;;12.70;83.60;;;;;;4939614;29;20431;-79
2022/04/13 00:22:39;;;;;;;27.38;16.70;;;12.80;84.20;;;;;;4956328;29;20047;-78
2022/04/13 00:25:06;;;;;;;26.00;15.82;;;12.80;84.10;;;;;;4955018;29;20039;-78
2022/04/13 00:27:34;;;;;;;31.15;16.48;;;12.40;85.60;;;;;;4954913;29;20047;-80
2022/04/13 00:30:03;;;;;;;32.05;16.90;;;12.30;86.00;;;;;;4955560;29;20031;-78
2022/04/13 00:32:32;;;;;;;30.15;15.48;;;12.30;86.20;;;;;;4954860;29;20391;-79
2022/04/13 00:35:04;;;;;;;27.15;16.48;;;12.40;86.00;;;;;;4939016;29;20436;-80
2022/04/13 00:37:32;;;;;;;24.80;15.55;;;12.40;86.10;;;;;;4954416;28;20043;-79
2022/04/13 00:40:00;;;;;;;30.83;15.55;;;12.40;86.70;;;;;;4956225;29;20375;-81
2022/04/13 00:42:29;;;;;;;27.92;15.88;;;12.50;87.40;;;;;;4955673;29;20118;-79
2022/04/13 00:44:56;;;;;;;29.13;15.55;;;12.60;87.70;;;;;;4954705;29;20091;-79
2022/04/13 00:47:24;;;;;;;28.10;17.15;;;12.50;88.70;;;;;;4969771;28;20054;-81
2022/04/13 00:49:54;;;;;;;33.22;17.50;;;12.20;90.00;;;;;;4975490;28;20146;-80
2022/04/13 00:52:26;;;;;;;30.30;16.70;;;12.10;89.90;;;;;;4942132;28;20043;-79
2022/04/13 00:54:54;;;;;;;28.27;17.80;;;12.30;89.60;;;;;;4941683;28;20046;-80
2022/04/13 00:57:22;;;;;;;28.95;17.70;;;11.90;90.00;;;;;;4957495;28;20039;-79
2022/04/13 00:59:53;;;;;;;31.42;18.10;;;12.30;89.60;;;;;;4958338;28;20062;-80
2022/04/13 01:02:23;;;;;;;36.92;17.33;;;12.40;88.80;;;;;;4957745;28;20070;-77
2022/04/13 01:04:53;;;;;;;28.33;16.92;;;11.90;89.70;;;;;;4957640;28;20037;-82
2022/04/13 01:07:22;;;;;;;27.77;15.10;;;12.20;90.00;;;;;;4938550;29;20078;-80
2022/04/13 01:09:50;;;;;;;26.85;15.05;;;12.30;89.50;;;;;;4955348;29;20039;-83
2022/04/13 01:12:18;;;;;;;23.50;16.02;;;12.30;89.60;;;;;;4954049;29;20035;-76
2022/04/13 01:14:45;;;;;;;24.02;15.90;;;12.20;90.00;;;;;;4955507;29;20047;-79
2022/04/13 01:17:12;;;;;;;22.15;16.00;;;12.10;90.30;;;;;;4955369;29;20383;-78
2022/04/13 01:19:40;;;;;;;23.75;15.88;;;12.20;90.50;;;;;;4954778;29;20147;-78
2022/04/13 01:22:34;;;;;;;24.08;16.02;;;12.00;90.90;;;;;;4954195;29;20097;-78
2022/04/13 01:25:01;;;;;;;23.00;14.80;;;11.90;91.60;;;;;;4952947;28;20130;-79
2022/04/13 01:27:28;;;;;;;23.15;15.80;;;11.80;92.40;;;;;;4953952;29;20382;-77
2022/04/13 01:29:55;;;;;;;30.10;15.10;;;11.90;92.20;;;;;;4938308;29;20043;-78
2022/04/13 01:32:22;;;;;;;28.00;15.38;;;12.10;91.90;;;;;;4953585;29;20039;-76
2022/04/13 01:34:52;;;;;;;24.88;14.32;;;11.70;92.80;;;;;;4953690;29;20039;-79
2022/04/13 01:37:20;;;;;;;21.38;13.75;;;11.80;92.90;;;;;;4955512;29;20478;-78
2022/04/13 01:39:47;;;;;;;26.70;13.68;;;11.70;93.00;;;;;;4954278;29;20134;-78
2022/04/13 01:42:14;;;;;;;22.02;13.43;;;11.40;93.20;;;;;;4953782;29;20039;-81
2022/04/13 01:44:45;;;;;;;21.45;12.48;;;11.40;93.00;;;;;;4938227;29;20443;-82
2022/04/13 01:47:12;;;;;;;16.90;11.52;;;11.30;93.40;;;;;;4967468;28;20047;-80
2022/04/13 01:49:40;;;;;;;17.92;11.27;;;11.50;92.70;;;;;;4955972;28;20070;-77
2022/04/13 01:52:09;;;;;;;17.73;11.68;;;11.60;92.10;;;;;;4956910;28;20071;-78
2022/04/13 01:54:36;;;;;;;22.15;12.10;;;11.30;92.90;;;;;;4956684;28;20035;-76
2022/04/13 01:57:04;;;;;;;19.15;10.73;;;11.30;93.20;;;;;;4974819;28;20066;-85
2022/04/13 01:59:31;;;;;;;18.20;10.57;;;11.40;92.90;;;;;;4974580;28;20356;-82
2022/04/13 02:01:59;;;;;;;15.27;11.02;;;11.40;93.00;;;;;;4974823;28;20110;-87
2022/04/13 02:04:26;;;;;;;15.93;11.38;;;11.40;93.00;;;;;;4957937;28;20054;-86
2022/04/13 02:06:54;;;;;;;19.65;11.23;;;11.40;93.40;;;;;;4961603;28;20043;-86
2022/04/13 02:09:21;;;;;;;20.05;11.25;;;11.40;93.00;;;;;;4955230;29;20491;-84
2022/04/13 02:11:49;;;;;;;18.30;10.82;;;11.40;93.10;;;;;;4953843;29;20055;-81
2022/04/13 02:14:17;;;;;;;17.33;10.90;;;11.30;93.10;;;;;;4937607;29;20525;-84
2022/04/13 02:16:44;;;;;;;21.63;10.45;;;11.20;93.50;;;;;;4954548;29;20517;-80
2022/04/13 02:19:12;;;;;;;17.13;10.90;;;11.40;93.20;;;;;;4954268;29;20042;-83
2022/04/13 02:21:39;;;;;;;18.17;10.73;;;11.30;93.10;;;;;;4937550;29;20125;-79
2022/04/13 02:24:10;;;;;;;19.35;11.02;;;11.60;92.80;;;;;;4953203;29;20047;-82
2022/04/13 02:26:37;;;;;;;16.27;10.90;;;11.20;93.20;;;;;;4953060;29;20051;-80
2022/04/13 02:29:04;;;;;;;18.75;11.40;;;11.30;93.50;;;;;;4953079;29;20375;-82
2022/04/13 02:31:32;;;;;;;19.00;10.98;;;11.20;93.40;;;;;;4954088;28;20047;-81
2022/04/13 02:33:59;;;;;;;18.10;11.63;;;11.30;93.50;;;;;;4953113;29;20053;-82
2022/04/13 02:36:26;;;;;;;15.85;10.38;;;11.40;93.40;;;;;;4954295;29;20051;-84
2022/04/13 02:38:54;;;;;;;19.40;10.93;;;11.50;92.80;;;;;;4952793;29;20487;-81
2022/04/13 02:41:21;;;;;;;18.38;11.48;;;11.20;93.80;;;;;;4936675;29;20126;-81
2022/04/13 02:43:49;;;;;;;15.82;10.70;;;10.90;94.90;;;;;;4953750;29;20058;-81
2022/04/13 02:46:16;;;;;;;15.13;10.25;;;11.10;95.10;;;;;;4936848;29;20051;-79
2022/04/13 02:48:44;;;;;;;16.00;11.15;;;11.10;95.20;;;;;;4953757;29;20486;-82
2022/04/13 02:51:11;;;;;;;17.17;11.07;;;11.00;95.30;;;;;;4936945;29;20051;-79
2022/04/13 02:53:38;;;;;;;20.40;10.77;;;10.90;95.50;;;;;;4952550;29;20042;-78
2022/04/13 02:56:05;;;;;;;19.05;11.30;;;11.10;95.40;;;;;;4936943;29;20049;-78
2022/04/13 02:58:33;;;;;;;15.80;10.77;;;10.80;95.60;;;;;;4952286;29;20047;-78
2022/04/13 03:01:03;;;;;;;13.40;9.75;;;10.80;95.30;;;;;;4953644;29;20437;-80
2022/04/13 03:03:31;;;;;;;13.30;9.48;;;10.80;95.40;;;;;;4952505;29;20094;-77
2022/04/13 03:05:58;;;;;;;12.95;9.50;;;10.50;95.90;;;;;;4952406;29;20402;-77
2022/04/13 03:08:25;;;;;;;13.77;9.70;;;10.40;96.40;;;;;;4953281;28;20047;-79
2022/04/13 03:10:53;;;;;;;14.73;9.95;;;10.60;96.30;;;;;;4953722;28;20077;-78
2022/04/13 03:13:21;;;;;;;13.82;9.73;;;10.70;95.60;;;;;;4952250;29;20053;-79
2022/04/13 03:15:48;;;;;;;14.32;9.52;;;10.70;95.90;;;;;;4952552;29;20108;-76
2022/04/13 03:18:15;;;;;;;15.70;9.65;;;10.80;95.60;;;;;;4936880;29;20440;-82
2022/04/13 03:20:42;;;;;;;15.95;9.70;;;10.70;95.80;;;;;;4952160;29;20374;-78
2022/04/13 03:23:10;;;;;;;15.00;9.77;;;10.70;95.50;;;;;;4936202;29;20124;-78
2022/04/13 03:25:37;;;;;;;20.23;10.50;;;10.50;96.10;;;;;;4953395;29;20046;-76
2022/04/13 03:28:04;;;;;;;14.98;10.70;;;10.50;96.30;;;;;;4952027;29;20049;-75
2022/04/13 03:30:32;;;;;;;15.07;10.13;;;10.70;95.70;;;;;;4953434;29;20383;-78
2022/04/13 03:32:59;;;;;;;17.38;10.93;;;10.70;95.50;;;;;;4951804;29;20059;-78
2022/04/13 03:35:27;;;;;;;18.77;10.60;;;10.40;96.30;;;;;;4952035;29;20036;-77
2022/04/13 03:37:54;;;;;;;14.10;10.48;;;10.50;96.30;;;;;;4952038;29;20043;-78
2022/04/13 03:40:23;;;;;;;17.15;10.35;;;10.40;96.30;;;;;;4953140;29;20050;-78
2022/04/13 03:42:50;;;;;;;17.50;10.98;;;10.30;96.90;;;;;;4953195;28;20035;-80
2022/04/13 03:45:17;;;;;;;14.52;10.35;;;10.20;96.50;;;;;;4951924;29;20040;-80
2022/04/13 03:47:44;;;;;;;13.57;9.63;;;10.40;96.50;;;;;;4951786;29;20066;-78
2022/04/13 03:50:12;;;;;;;14.93;10.38;;;10.30;96.60;;;;;;4952056;29;20110;-79
2022/04/13 03:52:39;;;;;;;16.27;9.95;;;10.30;96.30;;;;;;4935832;29;20126;-77
2022/04/13 03:55:09;;;;;;;17.08;10.25;;;10.30;96.40;;;;;;4952174;29;20138;-78
2022/04/13 03:57:37;;;;;;;17.60;9.43;;;10.30;96.70;;;;;;4953102;29;20043;-79
2022/04/13 04:00:06;;;;;;;13.23;9.45;;;10.30;96.60;;;;;;4951866;29;20049;-80
2022/04/13 04:02:38;;;;;;;16.73;10.38;;;10.20;96.80;;;;;;4953023;28;20074;-77
2022/04/13 04:05:06;;;;;;;18.30;10.02;;;10.10;97.40;;;;;;4951744;29;20036;-77
2022/04/13 04:07:33;;;;;;;15.02;9.73;;;10.20;96.80;;;;;;4951039;29;20046;-77
2022/04/13 04:10:01;;;;;;;13.60;10.25;;;10.10;96.80;;;;;;4951668;29;20130;-77
2022/04/13 04:12:41;;;;;;;14.65;9.43;;;9.80;98.00;;;;;;4954206;28;20129;-80
2022/04/13 04:15:10;;;;;;;15.98;9.90;;;10.00;97.30;;;;;;4956609;28;20379;-79
2022/04/13 04:17:38;;;;;;;16.80;9.52;;;10.00;96.90;;;;;;4956223;28;20031;-79
2022/04/13 04:20:09;;;;;;;12.80;9.88;;;10.20;96.30;;;;;;4939479;29;20074;-79
2022/04/13 04:22:36;;;;;;;14.82;9.77;;;10.00;96.50;;;;;;4955451;29;20039;-78
2022/04/13 04:25:05;;;;;;;13.98;9.93;;;10.10;96.40;;;;;;4939379;29;20062;-77
2022/04/13 04:27:32;;;;;;;15.18;9.70;;;9.80;97.30;;;;;;4955088;29;20095;-78
2022/04/13 04:30:01;;;;;;;16.85;9.45;;;10.10;97.20;;;;;;4955252;29;20043;-78
2022/04/13 04:32:28;;;;;;;16.67;10.93;;;10.00;97.00;;;;;;4956261;28;20491;-80
2022/04/13 04:34:55;;;;;;;15.07;10.85;;;10.00;97.50;;;;;;4954864;29;20049;-78
2022/04/13 04:37:24;;;;;;;15.57;10.48;;;10.20;97.20;;;;;;4954854;29;20043;-81
2022/04/13 04:39:51;;;;;;;15.45;11.07;;;9.90;97.40;;;;;;4939452;29;20047;-81
2022/04/13 04:42:21;;;;;;;17.65;11.55;;;10.00;98.00;;;;;;4955869;29;20122;-81
2022/04/13 04:44:53;;;;;;;19.90;11.57;;;10.00;97.30;;;;;;4956236;29;20039;-79
2022/04/13 04:47:22;;;;;;;22.45;11.60;;;9.90;97.10;;;;;;4954829;29;20050;-81
2022/04/13 04:49:50;;;;;;;16.42;11.15;;;10.00;97.40;;;;;;4955189;29;20515;-84
2022/04/13 04:52:17;;;;;;;18.58;12.02;;;10.10;97.30;;;;;;4954909;29;20399;-80
2022/04/13 04:54:47;;;;;;;16.95;11.50;;;10.20;97.40;;;;;;4956170;28;20391;-79
2022/04/13 04:57:15;;;;;;;23.52;12.68;;;10.30;97.10;;;;;;4954353;29;20050;-80
2022/04/13 04:59:44;;;;;;;61.50;35.42;;;10.30;97.00;;;;;;4954742;29;20047;-81
2022/04/13 05:02:12;;;;;;;31.73;19.65;;;10.40;98.30;;;;;;4954316;29;20042;-76
2022/04/13 05:04:42;;;;;;;26.67;16.10;;;10.20;97.90;;;;;;4938871;29;20051;-78
2022/04/13 05:07:09;;;;;;;31.00;17.85;;;10.40;98.20;;;;;;4954070;29;20046;-78
2022/04/13 05:09:39;;;;;;;26.77;16.58;;;10.40;98.20;;;;;;4946971;29;20395;-77
2022/04/13 05:12:07;;;;;;;26.85;16.45;;;10.40;97.80;;;;;;4937269;29;20062;-78
2022/04/13 05:14:37;;;;;;;44.70;26.95;;;10.30;97.80;;;;;;4953138;29;20556;-79
2022/04/13 05:17:07;;;;;;;58.83;33.15;;;10.60;97.60;;;;;;4937963;29;20035;-78
2022/04/13 05:19:34;;;;;;;26.30;16.40;;;10.60;97.10;;;;;;4937476;29;20043;-77
2022/04/13 05:22:02;;;;;;;18.90;10.35;;;10.50;96.80;;;;;;4937977;29;20035;-78
2022/04/13 05:24:32;;;;;;;13.60;9.23;;;10.30;97.20;;;;;;4934363;29;20094;-79
2022/04/13 05:26:59;;;;;;;15.23;9.85;;;10.40;97.00;;;;;;4921625;29;20497;-82
2022/04/13 05:29:27;;;;;;;15.27;10.13;;;10.60;96.90;;;;;;4937463;29;20380;-79
2022/04/13 05:31:54;;;;;;;15.30;8.68;;;10.50;97.10;;;;;;4937236;29;20027;-79
2022/04/13 05:34:21;;;;;;;12.65;8.80;;;10.60;96.70;;;;;;4937239;29;20716;-79
2022/04/13 05:36:48;;;;;;;11.20;7.75;;;10.70;96.70;;;;;;4954283;29;20043;-78
2022/04/13 05:39:16;;;;;;;13.40;8.45;;;10.70;95.60;;;;;;4921667;29;20067;-79
2022/04/13 05:41:43;;;;;;;17.48;9.35;;;10.60;95.10;;;;;;4937383;29;20043;-79
2022/04/13 05:44:10;;;;;;;17.13;8.88;;;10.60;95.20;;;;;;4937579;29;20415;-79
2022/04/13 05:46:38;;;;;;;18.17;8.77;;;10.60;95.30;;;;;;4936576;29;20057;-79
2022/04/13 05:49:05;;;;;;;12.05;8.77;;;10.60;95.70;;;;;;4936858;29;20130;-80
2022/04/13 05:51:33;;;;;;;13.18;9.10;;;10.60;95.70;;;;;;4937598;29;20047;-77
2022/04/13 05:54:00;;;;;;;14.90;9.02;;;10.70;95.90;;;;;;4920753;29;20031;-78
2022/04/13 05:56:27;;;;;;;11.45;7.93;;;10.80;95.50;;;;;;4953583;29;20054;-79
2022/04/13 05:58:55;;;;;;;12.45;8.13;;;10.90;94.30;;;;;;4921245;29;20122;-80
2022/04/13 06:01:23;;;;;;;13.73;8.57;;;10.90;93.80;;;;;;4936975;29;20170;-78
2022/04/13 06:03:50;;;;;;;19.90;9.05;;;10.80;94.20;;;;;;4954413;29;20038;-78
2022/04/13 06:06:17;;;;;;;21.20;9.45;;;10.80;94.60;;;;;;4954161;29;20043;-78
2022/04/13 06:08:46;;;;;;;15.13;9.88;;;10.80;95.10;;;;;;4953233;29;20070;-79
2022/04/13 06:11:13;;;;;;;18.40;9.43;;;10.90;95.60;;;;;;4937667;29;20050;-79
2022/04/13 06:13:41;;;;;;;18.42;10.30;;;10.80;96.10;;;;;;4953465;29;20043;-78
2022/04/13 06:16:08;;;;;;;19.55;9.80;;;10.90;96.30;;;;;;4954489;29;20387;-81
2022/04/13 06:18:36;;;;;;;16.55;10.00;;;10.80;96.60;;;;;;4937352;29;20490;-81
2022/04/13 06:21:03;;;;;;;18.40;10.40;;;10.70;96.80;;;;;;4937504;29;20047;-79
2022/04/13 06:23:31;;;;;;;19.75;11.23;;;10.60;97.20;;;;;;4936856;29;20047;-80
2022/04/13 06:25:58;;;;;;;22.50;10.48;;;10.60;97.00;;;;;;4937191;29;20487;-79
2022/04/13 06:28:26;;;;;;;21.20;10.73;;;10.70;96.60;;;;;;4952210;29;20051;-80
2022/04/13 06:30:53;;;;;;;19.73;11.10;;;10.80;96.00;;;;;;4952783;29;20427;-79
2022/04/13 06:33:21;;;;;;;19.30;12.02;;;11.00;95.60;;;;;;4936841;29;20170;-81
2022/04/13 06:35:48;;;;;;;22.73;12.00;;;11.20;95.90;;;;;;4936659;29;20039;-79
2022/04/13 06:38:16;;;;;;;18.38;11.75;;;11.00;96.10;;;;;;4953616;29;20043;-81
2022/04/13 06:40:43;;;;;;;56.58;32.08;;;11.30;96.40;;;;;;4937032;29;20047;-83
2022/04/13 06:43:10;;;;;;;109.30;66.93;;;11.30;94.60;;;;;;4936689;29;20039;-82
2022/04/13 06:45:37;;;;;;;64.22;39.58;;;11.40;94.40;;;;;;4937207;28;20170;-79
2022/04/13 06:48:07;;;;;;;24.40;17.30;;;11.50;94.70;;;;;;4939763;28;20395;-81
2022/04/13 06:50:35;;;;;;;24.70;13.32;;;11.70;93.60;;;;;;4956218;28;20089;-81
2022/04/13 06:53:02;;;;;;;20.65;12.95;;;11.60;93.50;;;;;;4956214;28;20052;-80
2022/04/13 06:55:30;;;;;;;18.50;11.38;;;11.50;93.50;;;;;;4939916;28;20054;-80
2022/04/13 06:57:57;;;;;;;21.38;11.77;;;11.20;93.90;;;;;;4950567;29;20547;-77
2022/04/13 07:00:25;;;;;;;20.13;11.48;;;11.30;94.00;;;;;;4935173;29;20035;-76
2022/04/13 07:02:57;;;;;;;23.00;12.30;;;11.30;94.10;;;;;;4949374;29;20035;-77
2022/04/13 07:05:40;;;;;;;21.88;12.52;;;11.10;94.80;;;;;;4933340;29;20467;-75
2022/04/13 07:08:08;;;;;;;25.67;11.80;;;11.10;94.90;;;;;;4952566;28;20061;-77
2022/04/13 07:10:38;;;;;;;21.48;12.02;;;11.20;94.90;;;;;;4919650;29;20550;-77
2022/04/13 07:13:11;;;;;;;22.92;11.45;;;11.40;94.90;;;;;;4935431;29;20094;-77
2022/04/13 07:15:39;;;;;;;25.50;13.50;;;11.50;95.10;;;;;;4919583;29;20391;-76
2022/04/13 07:18:07;;;;;;;24.13;12.85;;;11.60;95.40;;;;;;4951683;29;20043;-76
2022/04/13 07:20:34;;;;;;;17.75;11.95;;;11.60;94.70;;;;;;4932888;29;20035;-77
2022/04/13 07:23:04;;;;;;;25.75;12.40;;;11.70;94.20;;;;;;4935493;29;20090;-77
2022/04/13 07:25:32;;;;;;;21.77;12.25;;;11.70;94.20;;;;;;4932348;29;20506;-76
2022/04/13 07:28:00;;;;;;;16.33;11.57;;;11.70;94.20;;;;;;4952369;29;20047;-76
2022/04/13 07:30:27;;;;;;;22.45;11.65;;;11.70;93.80;;;;;;4952207;29;20031;-76
2022/04/13 07:32:55;;;;;;;21.23;10.15;;;11.80;92.90;;;;;;4919051;29;20054;-76
2022/04/13 07:35:23;;;;;;;16.20;10.05;;;11.70;91.70;;;;;;4935393;29;20379;-75
2022/04/13 07:37:50;;;;;;;22.55;11.30;;;11.70;92.30;;;;;;4934777;29;20051;-74
2022/04/13 07:40:18;;;;;;;18.58;11.60;;;11.80;92.80;;;;;;4949280;29;20386;-75
2022/04/13 07:42:48;;;;;;;18.33;10.73;;;11.80;93.50;;;;;;4934748;29;20050;-76
2022/04/13 07:45:17;;;;;;;19.83;11.37;;;11.80;93.10;;;;;;4917262;29;20043;-76
2022/04/13 07:47:44;;;;;;;12.52;9.80;;;11.90;93.50;;;;;;4953991;29;20438;-78
2022/04/13 07:50:12;;;;;;;15.15;9.27;;;11.70;93.50;;;;;;4938397;29;20111;-76
2022/04/13 07:52:41;;;;;;;15.13;9.13;;;11.90;94.50;;;;;;4938588;29;20066;-76
2022/04/13 07:55:10;;;;;;;13.75;8.77;;;11.90;93.60;;;;;;4938677;29;20454;-77
2022/04/13 07:57:38;;;;;;;14.73;8.88;;;12.00;93.40;;;;;;4935777;29;20483;-76
2022/04/13 08:00:09;;;;;;;12.25;7.60;;;12.00;93.50;;;;;;4955594;29;20031;-76
2022/04/13 08:02:37;;;;;;;11.20;8.15;;;12.10;92.50;;;;;;4935554;29;20566;-74
2022/04/13 08:05:05;;;;;;;13.77;8.85;;;12.30;93.00;;;;;;4922970;29;20039;-75
2022/04/13 08:07:34;;;;;;;13.65;8.05;;;12.20;91.60;;;;;;4938640;29;20047;-77
2022/04/13 08:10:02;;;;;;;9.70;7.55;;;12.20;91.80;;;;;;4937869;29;20119;-76
2022/04/13 08:12:30;;;;;;;10.75;7.45;;;12.30;93.00;;;;;;4921018;29;20044;-76
2022/04/13 08:14:58;;;;;;;11.18;6.78;;;12.40;91.30;;;;;;4955223;29;20042;-76
2022/04/13 08:17:26;;;;;;;13.43;6.57;;;12.50;90.00;;;;;;4936074;29;20700;-76
2022/04/13 08:19:54;;;;;;;12.32;7.20;;;12.50;90.00;;;;;;4938165;29;20411;-76
2022/04/13 08:22:27;;;;;;;13.98;7.38;;;12.60;90.40;;;;;;4935547;29;20420;-76
2022/04/13 08:24:54;;;;;;;11.18;7.05;;;12.70;92.00;;;;;;4937715;29;20047;-77
2022/04/13 08:27:21;;;;;;;10.52;6.80;;;12.70;91.20;;;;;;4937671;29;20047;-77
2022/04/13 08:29:49;;;;;;;10.68;6.50;;;12.70;91.70;;;;;;4923329;29;20035;-76
2022/04/13 08:32:17;;;;;;;10.50;6.35;;;12.80;91.40;;;;;;4920401;29;20380;-75
2022/04/13 08:34:49;;;;;;;12.55;6.00;;;12.80;90.00;;;;;;4904449;29;20048;-76
2022/04/13 08:37:16;;;;;;;10.27;6.07;;;13.20;85.40;;;;;;4919948;29;20042;-76
2022/04/13 08:39:47;;;;;;;11.07;5.65;;;13.20;82.20;;;;;;4919809;29;20044;-75
2022/04/13 08:42:30;;;;;;;10.25;6.97;;;13.40;79.70;;;;;;4919613;29;20476;-76
2022/04/13 08:45:04;;;;;;;10.43;6.20;;;13.40;86.20;;;;;;4936791;29;20487;-74
2022/04/13 08:47:37;;;;;;;10.55;5.80;;;13.60;82.20;;;;;;4919327;29;20055;-77
2022/04/13 08:50:06;;;;;;;11.13;5.95;;;13.70;84.30;;;;;;4919783;29;20115;-75
2022/04/13 08:52:36;;;;;;;16.08;7.60;;;13.70;84.50;;;;;;4936416;29;20106;-77
2022/04/13 08:55:09;;;;;;;13.07;6.53;;;13.80;86.50;;;;;;4938328;29;20495;-75
2022/04/13 08:57:48;;;;;;;8.77;5.97;;;13.90;83.30;;;;;;4955344;28;20043;-76
2022/04/13 09:00:21;;;;;;;10.32;6.25;;;13.90;82.50;;;;;;4955805;29;20047;-76
2022/04/13 09:03:13;;;;;;;8.73;6.22;;;14.00;82.90;;;;;;4955492;29;20147;-76
2022/04/13 09:05:50;;;;;;;8.57;5.88;;;14.00;80.30;;;;;;4955778;29;20119;-80
2022/04/13 09:08:33;;;;;;;8.98;5.72;;;14.00;83.20;;;;;;4937884;29;20047;-78
2022/04/13 09:11:04;;;;;;;14.75;6.65;;;14.10;84.50;;;;;;4955401;29;20349;-80
2022/04/13 09:13:37;;;;;;;10.82;6.45;;;14.20;84.60;;;;;;4955497;29;20538;-81
2022/04/13 09:16:06;;;;;;;12.32;5.88;;;14.50;86.10;;;;;;4922364;29;20112;-79
2022/04/13 09:18:43;;;;;;;11.90;6.57;;;14.30;86.20;;;;;;4938397;29;20368;-79
2022/04/13 09:21:17;;;;;;;13.52;6.07;;;14.10;89.20;;;;;;4938015;29;20042;-76
2022/04/13 09:23:45;;;;;;;13.48;6.57;;;14.10;88.40;;;;;;4937977;29;20395;-77
2022/04/13 09:26:28;;;;;;;12.57;6.25;;;14.20;88.30;;;;;;4938418;29;20122;-78
2022/04/13 09:28:56;;;;;;;11.50;6.07;;;14.20;88.90;;;;;;4922212;29;20043;-77
2022/04/13 09:31:28;;;;;;;9.65;6.57;;;14.30;88.40;;;;;;4922440;29;20043;-77
2022/04/13 09:34:05;;;;;;;8.93;6.28;;;14.50;88.20;;;;;;4938029;29;20132;-77
2022/04/13 09:36:35;;;;;;;12.02;6.28;;;14.40;88.70;;;;;;4955142;29;20033;-77
2022/04/13 09:39:03;;;;;;;12.27;6.32;;;14.50;89.50;;;;;;4937478;29;20509;-78
2022/04/13 09:41:39;;;;;;;9.90;6.32;;;14.60;87.30;;;;;;4938513;29;20043;-77
2022/04/13 09:44:18;;;;;;;12.63;6.55;;;14.60;83.40;;;;;;4937663;29;20047;-78
2022/04/13 09:46:56;;;;;;;;;;;;;;;;;;;;;
2022/04/13 09:49:24;;;;;;;11.70;5.95;;;14.60;83.30;;;;;;4954721;29;20162;-77
2022/04/13 09:51:57;;;;;;;11.48;6.15;;;14.60;81.30;;;;;;4937383;29;20039;-77
2022/04/13 09:54:32;;;;;;;9.80;6.40;;;14.70;85.30;;;;;;4938395;29;20070;-79
2022/04/13 09:57:04;;;;;;;11.50;6.68;;;14.80;86.60;;;;;;4937835;29;20370;-79
2022/04/13 09:59:40;;;;;;;9.95;4.85;;;14.90;84.20;;;;;;4937476;29;20047;-79
2022/04/13 10:02:09;;;;;;;8.07;4.28;;;15.20;77.20;;;;;;4921425;29;20046;-78
2022/04/13 10:04:55;;;;;;;;;;;;;;;;;;;;;
2022/04/13 10:07:43;;;;;;;8.80;5.18;;;15.10;75.60;;;;;;4944312;29;20065;-76
2022/04/13 10:10:24;;;;;;;7.80;5.05;;;15.40;80.00;;;;;;4953281;28;20386;-79
2022/04/13 10:12:54;;;;;;;7.30;4.35;;;15.60;69.60;;;;;;4936701;29;20387;-76
2022/04/13 10:15:24;;;;;;;8.68;5.15;;;15.70;71.10;;;;;;4936885;29;20090;-78
2022/04/13 10:17:58;;;;;;;8.10;4.65;;;15.60;75.20;;;;;;4937010;29;20047;-76
2022/04/13 10:20:57;;;;;;;9.82;5.00;;;15.60;75.40;;;;;;4954012;29;20046;-78
2022/04/13 10:23:41;;;;;;;15.10;4.95;;;15.70;69.70;;;;;;4935569;29;20156;-80
2022/04/13 10:26:10;;;;;;;9.32;4.72;;;15.90;70.70;;;;;;4954241;29;20467;-78
2022/04/13 10:28:49;;;;;;;10.77;4.68;;;15.90;70.00;;;;;;4936913;29;20382;-78
2022/04/13 10:31:16;;;;;;;8.63;4.72;;;16.00;72.40;;;;;;4935554;29;20043;-78
2022/04/13 10:33:48;;;;;;;7.70;4.35;;;15.90;70.30;;;;;;4936893;29;20041;-79
2022/04/13 10:36:17;;;;;;;8.63;4.53;;;15.90;71.60;;;;;;4953831;29;20440;-78
2022/04/13 10:38:49;;;;;;;8.05;4.70;;;16.10;69.30;;;;;;4921195;29;20067;-76
2022/04/13 10:41:29;;;;;;;9.13;5.03;;;16.40;75.50;;;;;;4918198;29;20039;-80
2022/04/13 10:43:58;;;;;;;10.20;4.88;;;16.40;71.90;;;;;;4921409;29;20090;-78
2022/04/13 10:46:26;;;;;;;11.35;4.90;;;16.60;69.30;;;;;;4936314;29;20488;-75
2022/04/13 10:49:00;;;;;;;7.22;4.47;;;16.50;70.50;;;;;;4920901;29;20050;-75
2022/04/13 10:51:44;;;;;;;12.07;5.10;;;16.50;67.80;;;;;;4936289;29;20071;-77
2022/04/13 10:54:17;;;;;;;7.57;4.55;;;16.50;69.20;;;;;;4937003;29;20047;-77
2022/04/13 10:56:50;;;;;;;7.00;5.10;;;16.60;70.40;;;;;;4920867;29;20039;-77
2022/04/13 10:59:32;;;;;;;9.48;4.93;;;16.80;68.10;;;;;;4921177;29;20090;-77
2022/04/13 11:02:12;;;;;;;9.73;4.60;;;16.90;69.90;;;;;;4920696;29;20141;-76
2022/04/13 11:04:44;;;;;;;9.63;4.57;;;17.10;66.50;;;;;;4936918;29;20043;-79
2022/04/13 11:07:18;;;;;;;8.90;4.85;;;17.20;65.60;;;;;;4963828;28;20046;-78
2022/04/13 11:09:46;;;;;;;9.43;4.90;;;17.20;64.40;;;;;;4954923;28;20047;-79
2022/04/13 11:12:14;;;;;;;7.88;4.78;;;17.10;65.40;;;;;;4955555;28;20126;-78
2022/04/13 11:14:53;;;;;;;12.15;5.07;;;17.20;65.60;;;;;;4939803;28;20070;-78
2022/04/13 11:17:24;;;;;;;9.38;4.22;;;17.30;62.90;;;;;;4939566;28;20038;-78
2022/04/13 11:20:11;;;;;;;6.20;3.78;;;17.40;63.50;;;;;;4954870;28;20505;-78
2022/04/13 11:22:39;;;;;;;7.53;4.05;;;17.40;64.80;;;;;;4959568;28;20458;-78
2022/04/13 11:25:07;;;;;;;9.95;4.10;;;17.70;63.60;;;;;;4959712;28;20528;-78
2022/04/13 11:28:04;;;;;;;12.35;4.32;;;17.50;64.10;;;;;;4976648;28;20045;-77
2022/04/13 11:31:07;;;;;;;7.53;4.20;;;17.90;63.40;;;;;;4944285;28;20133;-78
2022/04/13 11:33:56;;;;;;;7.03;4.13;;;17.80;63.50;;;;;;4959459;28;20038;-75
2022/04/13 11:36:27;;;;;;;8.63;4.93;;;18.20;59.50;;;;;;4976233;28;20125;-78
2022/04/13 11:39:13;;;;;;;12.35;4.82;;;18.20;60.60;;;;;;4959092;28;20035;-77
2022/04/13 11:41:51;;;;;;;7.57;4.55;;;18.30;60.30;;;;;;4976681;28;20039;-78
2022/04/13 11:44:19;;;;;;;10.95;4.32;;;18.20;60.30;;;;;;4976433;28;20048;-80
2022/04/13 11:47:17;;;;;;;8.65;4.13;;;18.30;61.70;;;;;;4975848;28;20055;-79
2022/04/13 11:50:01;;;;;;;13.32;4.50;;;18.30;61.60;;;;;;4959248;28;20404;-79
2022/04/13 11:52:58;;;;;;;6.15;3.83;;;18.60;60.30;;;;;;4944519;29;20130;-79
2022/04/13 11:55:42;;;;;;;7.78;4.03;;;18.60;61.40;;;;;;4956658;29;20051;-77
2022/04/13 11:58:14;;;;;;;7.53;4.18;;;18.90;59.40;;;;;;4939796;29;20058;-80
2022/04/13 12:01:07;;;;;;;8.95;4.40;;;18.70;62.90;;;;;;4939735;29;20035;-78
2022/04/13 12:03:43;;;;;;;9.45;4.40;;;19.20;58.80;;;;;;4956524;29;20047;-79
2022/04/13 12:06:12;;;;;;;6.60;3.78;;;19.00;58.30;;;;;;4956640;28;20074;-80
2022/04/13 12:08:45;;;;;;;10.03;4.53;;;19.30;58.70;;;;;;4942528;28;20097;-77
2022/04/13 12:11:16;;;;;;;8.82;4.18;;;19.10;57.90;;;;;;4943019;28;20062;-81
2022/04/13 12:13:51;;;;;;;9.82;4.60;;;19.50;56.80;;;;;;4958425;28;20039;-79
2022/04/13 12:16:29;;;;;;;8.38;5.05;;;19.40;57.20;;;;;;4942502;28;20047;-80
2022/04/13 12:19:09;;;;;;;7.10;4.03;;;19.20;58.80;;;;;;4943130;28;20061;-79
2022/04/13 12:21:40;;;;;;;8.73;3.88;;;19.20;57.80;;;;;;4942613;28;20522;-79
2022/04/13 12:24:09;;;;;;;8.40;4.22;;;19.30;60.10;;;;;;4975544;28;20053;-78
2022/04/13 12:26:41;;;;;;;9.82;4.53;;;19.50;58.20;;;;;;4975710;28;20348;-81
2022/04/13 12:29:17;;;;;;;8.13;4.38;;;19.60;56.70;;;;;;4958406;28;20490;-79
2022/04/13 12:31:48;;;;;;;10.20;4.82;;;19.60;59.50;;;;;;4957751;28;20147;-79
2022/04/13 12:34:32;;;;;;;8.38;4.35;;;19.80;57.30;;;;;;4958367;28;20058;-80
2022/04/13 12:37:06;;;;;;;9.55;4.28;;;20.30;55.40;;;;;;4958623;28;20524;-78
2022/04/13 12:39:36;;;;;;;10.85;4.45;;;19.90;58.30;;;;;;4958918;28;20047;-78
2022/04/13 12:42:05;;;;;;;10.43;4.72;;;19.90;58.30;;;;;;4975765;28;20035;-78
2022/04/13 12:44:32;;;;;;;10.98;3.80;;;20.20;57.30;;;;;;4975455;28;20047;-77
2022/04/13 12:47:08;;;;;;;9.25;3.90;;;20.20;58.00;;;;;;4974698;28;20534;-79
2022/04/13 12:49:38;;;;;;;6.65;4.07;;;20.30;57.50;;;;;;4942135;28;20244;-80
2022/04/13 12:52:07;;;;;;;8.57;3.78;;;20.60;56.50;;;;;;4942088;28;20043;-78